Time;durP1;ratioP1;P1;durP2;ratioP2;P2;SDS_P1;SDS_P2;PMS_P1;PMS_P2;Temp;Humidity;BMP_temperature;BMP_pressure;BME280_temperature;BME280_humidity;BME280_pressure;Samples;Min_cycle;Max_cycle;Signal;HPM_P1;HPM_P2
2022/11/05 00:10:36;;;;;;;7.50;3.80;;;;;;;15.37;54.17;100547.86;105502;1302;23095;-65
2022/11/05 00:18:32;;;;;;;8.70;4.10;;;;;;;15.50;54.18;100544.82;105742;1304;22137;-65
2022/11/05 00:20:58;;;;;;;7.20;3.20;;;;;;;15.52;54.01;100548.13;105811;1306;24420;-65
2022/11/05 00:26:10;;;;;;;9.70;3.70;;;;;;;15.53;54.21;100550.77;105748;1306;21967;-64
2022/11/05 00:28:36;;;;;;;7.50;3.50;;;;;;;15.54;54.15;100549.14;105750;1306;21965;-65
2022/11/05 00:31:08;;;;;;;9.70;4.20;;;;;;;15.53;54.29;100545.10;106111;1306;21971;-65
2022/11/05 00:33:39;;;;;;;8.90;3.40;;;;;;;15.52;54.34;100542.48;105742;1305;21940;-65
2022/11/05 00:36:06;;;;;;;7.00;2.90;;;;;;;15.52;54.17;100539.12;105767;1306;21963;-65
2022/11/05 00:38:32;;;;;;;7.90;3.70;;;;;;;15.54;54.03;100536.56;105696;1306;22742;-64
2022/11/05 00:40:58;;;;;;;9.60;4.20;;;;;;;15.54;54.14;100535.68;105886;1306;21963;-66
2022/11/05 00:46:09;;;;;;;9.20;3.80;;;;;;;15.52;53.90;100536.10;105713;1303;22007;-65
2022/11/05 00:51:19;;;;;;;7.00;3.70;;;;;;;15.52;53.83;100531.69;107685;1293;21865;-66
2022/11/05 00:53:45;;;;;;;11.00;4.00;;;;;;;15.52;53.91;100528.31;107302;1297;22376;-66
2022/11/05 00:56:11;;;;;;;6.70;3.70;;;;;;;15.52;53.86;100531.68;107137;1306;21807;-65
2022/11/05 00:58:37;;;;;;;6.30;3.30;;;;;;;15.50;53.97;100535.99;106510;1305;23736;-65
2022/11/05 01:01:05;;;;;;;11.80;4.30;;;;;;;15.50;53.89;100532.99;105792;1306;21964;-64
2022/11/05 01:03:35;;;;;;;8.10;3.90;;;;;;;15.49;54.04;100531.05;105720;1305;21962;-65
2022/11/05 01:06:09;;;;;;;9.90;3.70;;;;;;;15.49;54.03;100536.37;105732;1306;21972;-65
2022/11/05 01:08:35;;;;;;;8.50;3.70;;;;;;;15.48;54.05;100529.86;105838;1306;21971;-65
2022/11/05 01:11:06;;;;;;;7.10;3.30;;;;;;;15.47;54.03;100525.46;105836;1304;21968;-65
2022/11/05 01:13:32;;;;;;;7.50;3.70;;;;;;;15.49;53.98;100524.20;105659;1306;23913;-65
2022/11/05 01:16:03;;;;;;;6.50;3.90;;;;;;;15.49;53.99;100523.48;105745;1306;21971;-66
2022/11/05 01:18:29;;;;;;;12.30;4.10;;;;;;;15.50;53.98;100526.63;105723;1306;22010;-65
2022/11/05 01:20:55;;;;;;;11.30;4.50;;;;;;;15.49;53.97;100525.92;105771;1306;21960;-66
2022/11/05 01:23:21;;;;;;;8.30;3.90;;;;;;;15.49;53.81;100526.83;105804;1305;21963;-65
2022/11/05 01:25:48;;;;;;;7.00;3.10;;;;;;;15.46;53.82;100528.48;105713;1306;21963;-65
2022/11/05 01:28:14;;;;;;;11.60;3.70;;;;;;;15.43;53.72;100534.08;105793;1306;21972;-65
2022/11/05 01:30:40;;;;;;;7.70;4.20;;;;;;;15.42;53.62;100537.48;105804;1306;22050;-65
2022/11/05 01:33:06;;;;;;;10.70;4.70;;;;;;;15.41;53.59;100538.39;105776;1306;21973;-64
2022/11/05 01:35:31;;;;;;;9.00;4.10;;;;;;;15.38;53.62;100536.89;105770;1306;21959;-65
2022/11/05 01:37:57;;;;;;;10.40;4.40;;;;;;;15.34;53.58;100540.35;105736;1303;22017;-64
2022/11/05 01:40:23;;;;;;;8.30;3.40;;;;;;;15.32;53.71;100540.77;105923;1306;21974;-65
2022/11/05 01:42:49;;;;;;;8.20;3.50;;;;;;;15.32;53.64;100541.13;105719;1306;21972;-65
2022/11/05 01:45:18;;;;;;;7.70;3.70;;;;;;;15.30;53.58;100536.04;105734;1306;22045;-65
2022/11/05 01:47:56;;;;;;;8.10;3.90;;;;;;;15.28;53.56;100535.38;105873;1305;21965;-65
2022/11/05 01:50:40;;;;;;;9.70;4.30;;;;;;;15.26;53.58;100535.09;105734;1303;22000;-66
2022/11/05 01:53:09;;;;;;;11.20;4.00;;;;;;;15.22;53.57;100539.45;105668;1301;21965;-66
2022/11/05 01:55:45;;;;;;;7.90;3.40;;;;;;;15.21;53.50;100540.73;107794;1306;21982;-66
2022/11/05 01:58:13;;;;;;;9.60;3.90;;;;;;;15.21;53.49;100538.45;107794;1306;22106;-65
2022/11/05 02:00:39;;;;;;;7.90;2.90;;;;;;;15.20;53.48;100541.13;107713;1304;21796;-65
2022/11/05 02:03:05;;;;;;;8.40;4.10;;;;;;;15.19;53.53;100541.68;107743;1306;22353;-66
2022/11/05 02:05:32;;;;;;;9.90;4.50;;;;;;;15.20;53.48;100542.19;106107;1306;21965;-64
2022/11/05 02:07:58;;;;;;;8.50;3.80;;;;;;;15.20;53.53;100540.23;105643;1306;21981;-64
2022/11/05 02:10:24;;;;;;;11.60;4.70;;;;;;;15.21;53.58;100540.04;105660;1306;21954;-64
2022/11/05 02:12:50;;;;;;;8.90;3.50;;;;;;;15.20;53.55;100540.05;105719;1305;21968;-66
2022/11/05 02:15:23;;;;;;;7.50;3.00;;;;;;;15.18;53.54;100539.74;105744;1306;21959;-66
2022/11/05 02:18:00;;;;;;;9.10;3.60;;;;;;;15.17;53.59;100544.20;105812;1304;21966;-65
2022/11/05 02:20:31;;;;;;;10.00;4.40;;;;;;;15.13;53.65;100542.54;105796;1306;23125;-65
2022/11/05 02:23:15;;;;;;;7.70;3.60;;;;;;;15.10;53.70;100543.70;105808;1306;22182;-66
2022/11/05 02:26:29;;;;;;;7.40;3.10;;;;;;;15.10;53.78;100547.59;105767;1306;21959;-64
2022/11/05 02:29:19;;;;;;;7.50;3.30;;;;;;;15.10;53.84;100548.46;105706;1306;21973;-66
2022/11/05 02:31:53;;;;;;;6.90;3.50;;;;;;;15.11;53.89;100545.95;105813;1306;21964;-65
2022/11/05 02:34:26;;;;;;;7.20;3.30;;;;;;;15.11;53.99;100548.77;105766;1306;22008;-65
2022/11/05 02:37:31;;;;;;;8.20;3.60;;;;;;;15.10;54.03;100549.00;105759;1306;22023;-65
2022/11/05 02:40:06;;;;;;;9.20;3.70;;;;;;;15.10;54.25;100552.19;105694;1306;21975;-66
2022/11/05 02:43:02;;;;;;;8.90;3.20;;;;;;;15.10;54.55;100558.00;105694;1305;22024;-65
2022/11/05 02:46:00;;;;;;;7.50;3.30;;;;;;;15.12;54.48;100562.73;105704;1306;21954;-65
2022/11/05 02:48:33;;;;;;;9.70;4.10;;;;;;;15.11;54.46;100562.76;105713;1306;21964;-65
2022/11/05 02:51:30;;;;;;;8.80;3.80;;;;;;;15.08;54.48;100566.55;105630;1306;23815;-66
2022/11/05 02:54:13;;;;;;;7.00;3.20;;;;;;;15.06;54.38;100567.49;105736;1306;22010;-66
2022/11/05 02:56:42;;;;;;;6.00;2.60;;;;;;;15.05;54.38;100570.35;105750;1304;21972;-64
2022/11/05 02:59:08;;;;;;;9.00;3.80;;;;;;;15.02;54.41;100572.17;105674;1306;21964;-66
2022/11/05 03:01:35;;;;;;;10.70;3.30;;;;;;;15.01;54.36;100573.97;105659;1306;21972;-65
2022/11/05 03:04:02;;;;;;;10.20;3.60;;;;;;;15.00;54.58;100576.66;105645;1306;21977;-66
2022/11/05 03:06:38;;;;;;;7.20;3.00;;;;;;;14.98;54.60;100575.67;105665;1306;21969;-64
2022/11/05 03:09:09;;;;;;;6.10;3.00;;;;;;;14.95;54.52;100572.38;105667;1306;21973;-65
2022/11/05 03:11:56;;;;;;;7.30;2.90;;;;;;;14.93;54.51;100573.85;105695;1306;21975;-65
2022/11/05 03:14:34;;;;;;;10.10;3.30;;;;;;;14.92;54.61;100576.70;105589;1306;21956;-65
2022/11/05 03:17:09;;;;;;;5.70;3.30;;;;;;;14.90;54.77;100576.23;107143;1306;21786;-65
2022/11/05 03:19:47;;;;;;;8.20;3.30;;;;;;;14.85;54.71;100575.11;105764;1306;23718;-64
2022/11/05 03:22:18;;;;;;;7.40;3.20;;;;;;;14.81;54.75;100573.61;105781;1305;22008;-66
2022/11/05 03:24:49;;;;;;;7.50;2.80;;;;;;;14.80;54.74;100574.20;105761;1306;21968;-65
2022/11/05 03:27:18;;;;;;;6.80;3.10;;;;;;;14.78;54.77;100574.23;105775;1301;21937;-65
2022/11/05 03:29:47;;;;;;;7.00;3.10;;;;;;;14.77;54.72;100575.52;105790;1304;22144;-65
2022/11/05 03:32:13;;;;;;;7.40;3.00;;;;;;;14.75;54.68;100580.17;105702;1306;21981;-64
2022/11/05 03:34:46;;;;;;;6.00;2.90;;;;;;;14.72;54.68;100579.35;105664;1303;21975;-65
2022/11/05 03:37:11;;;;;;;8.50;2.90;;;;;;;14.68;54.55;100578.38;105695;1307;21950;-65
2022/11/05 03:39:49;;;;;;;7.10;3.00;;;;;;;14.63;54.51;100580.95;105614;1306;21976;-65
2022/11/05 03:42:17;;;;;;;4.60;3.00;;;;;;;14.57;54.54;100584.29;105765;1306;22018;-63
2022/11/05 03:44:51;;;;;;;8.50;3.20;;;;;;;14.54;54.43;100581.90;105754;1306;21945;-65
2022/11/05 03:47:26;;;;;;;9.00;3.20;;;;;;;14.52;54.42;100582.66;105832;1306;21967;-63
2022/11/05 03:49:58;;;;;;;5.90;3.00;;;;;;;14.49;54.36;100577.62;105792;1305;21982;-64
2022/11/05 03:52:26;;;;;;;6.70;3.20;;;;;;;14.46;54.40;100575.04;105770;1306;23731;-65
2022/11/05 03:54:52;;;;;;;8.00;3.50;;;;;;;14.43;54.48;100574.04;105671;1306;21998;-66
2022/11/05 03:57:27;;;;;;;7.40;3.20;;;;;;;14.41;54.55;100576.05;105837;1306;21964;-65
2022/11/05 03:59:53;;;;;;;6.00;2.70;;;;;;;14.36;54.61;100571.39;105984;1306;21966;-65
2022/11/05 04:02:20;;;;;;;7.60;3.00;;;;;;;14.33;54.79;100573.08;105722;1306;22014;-66
2022/11/05 04:04:50;;;;;;;7.20;3.70;;;;;;;14.31;54.74;100577.17;105683;1306;21974;-64
2022/11/05 04:15:30;;;;;;;6.30;2.80;;;;;;;14.23;55.09;100582.11;105685;1306;21978;-64
2022/11/05 04:17:57;;;;;;;5.70;3.00;;;;;;;14.23;55.00;100576.48;107117;1301;22219;-67
2022/11/05 04:25:58;;;;;;;7.60;3.00;;;;;;;14.12;55.09;100583.63;105717;1303;22041;-64
2022/11/05 04:30:17;;;;;;;7.20;3.20;;;;;;;14.10;55.26;100583.14;106569;1306;21972;-66
2022/11/05 04:31:10;;;;;;;7.20;3.30;;;;;;;14.10;55.30;100580.16;105752;1306;21975;-64
2022/11/05 04:33:36;;;;;;;10.50;4.20;;;;;;;14.09;55.53;100583.17;105740;1306;21972;-66
2022/11/05 04:36:02;;;;;;;6.30;3.10;;;;;;;14.09;55.46;100582.11;105775;1303;22005;-64
2022/11/05 04:38:29;;;;;;;7.00;2.90;;;;;;;14.08;55.27;100584.27;105804;1306;21974;-64
2022/11/05 04:40:58;;;;;;;10.30;3.10;;;;;;;14.06;55.13;100586.23;105738;1305;21972;-64
2022/11/05 04:43:24;;;;;;;8.10;3.50;;;;;;;14.03;54.92;100587.55;105777;1306;21970;-64
2022/11/05 04:45:49;;;;;;;12.40;3.50;;;;;;;14.00;54.93;100589.90;105761;1306;21959;-63
2022/11/05 04:48:15;;;;;;;16.90;3.50;;;;;;;13.99;54.93;100588.34;105741;1304;21957;-64
2022/11/05 04:50:43;;;;;;;8.90;3.80;;;;;;;13.98;54.69;100592.41;105811;1306;21963;-64
2022/11/05 04:53:08;;;;;;;9.20;3.30;;;;;;;13.95;54.36;100595.66;105757;1305;21959;-64
2022/11/05 04:55:36;;;;;;;8.90;3.60;;;;;;;13.88;54.14;100604.11;105801;1306;21971;-64
2022/11/05 04:58:01;;;;;;;5.50;3.20;;;;;;;13.82;54.10;100608.33;105738;1306;21995;-65
2022/11/05 05:00:27;;;;;;;10.80;5.90;;;;;;;13.75;54.08;100607.58;105749;1297;21970;-65
2022/11/05 05:02:53;;;;;;;14.40;6.80;;;;;;;13.68;54.19;100602.97;105731;1306;21964;-66
2022/11/05 05:05:20;;;;;;;10.20;6.10;;;;;;;13.64;54.26;100602.16;105796;1306;21965;-65
2022/11/05 05:07:46;;;;;;;9.50;4.40;;;;;;;13.62;54.34;100603.80;105813;1306;21970;-65
2022/11/05 05:10:12;;;;;;;10.50;4.20;;;;;;;13.59;54.37;100605.96;105866;1306;21956;-65
2022/11/05 05:12:40;;;;;;;8.50;3.90;;;;;;;13.59;54.55;100610.02;105792;1306;21965;-65
2022/11/05 05:15:07;;;;;;;6.80;3.00;;;;;;;13.62;54.73;100610.67;105853;1306;21972;-65
2022/11/05 05:17:34;;;;;;;9.00;4.10;;;;;;;13.64;54.82;100610.61;105752;1301;21963;-64
2022/11/05 05:22:52;;;;;;;22.50;5.00;;;;;;;13.74;54.61;100611.13;105660;1303;21974;-64
2022/11/05 05:25:19;;;;;;;25.20;4.50;;;;;;;13.79;54.66;100610.13;107824;1305;21800;-66
2022/11/05 05:27:45;;;;;;;23.40;4.50;;;;;;;13.85;54.63;100611.78;107337;1306;23653;-64
2022/11/05 05:30:11;;;;;;;25.90;4.60;;;;;;;13.90;54.62;100614.85;105638;1305;21964;-64
2022/11/05 05:32:37;;;;;;;18.10;4.20;;;;;;;13.95;54.51;100615.77;107811;1306;21775;-66
2022/11/05 05:35:03;;;;;;;36.40;8.40;;;;;;;14.03;54.44;100615.09;105699;1306;23076;-64
2022/11/05 05:37:29;;;;;;;34.30;8.20;;;;;;;14.10;54.46;100621.08;105709;1306;21985;-64
2022/11/05 05:39:55;;;;;;;34.00;10.10;;;;;;;14.17;54.25;100623.02;105775;1306;21964;-65
2022/11/05 05:42:21;;;;;;;29.70;9.50;;;;;;;14.24;54.32;100626.40;105843;1305;21981;-65
2022/11/05 05:44:47;;;;;;;35.80;9.90;;;;;;;14.31;54.31;100630.30;105803;1306;23754;-64
2022/11/05 05:47:13;;;;;;;33.50;8.70;;;;;;;14.40;54.39;100626.55;105779;1302;21959;-64
2022/11/05 05:49:40;;;;;;;30.70;8.10;;;;;;;14.49;54.28;100625.83;105751;1306;21960;-64
2022/11/05 05:52:05;;;;;;;31.50;9.40;;;;;;;14.57;54.21;100627.05;105759;1306;21985;-63
2022/11/05 05:54:31;;;;;;;37.60;9.10;;;;;;;14.65;54.28;100627.20;105756;1306;21972;-63
2022/11/05 05:56:57;;;;;;;26.10;8.60;;;;;;;14.71;54.29;100630.59;105760;1306;21972;-64
2022/11/05 05:59:23;;;;;;;20.40;5.70;;;;;;;14.80;54.75;100633.71;105776;1306;21977;-65
2022/11/05 06:01:48;;;;;;;13.70;4.80;;;;;;;14.90;55.03;100637.37;105817;1306;21953;-64
2022/11/05 06:04:15;;;;;;;12.20;5.10;;;;;;;14.98;55.37;100642.46;105734;1306;21990;-64
2022/11/05 06:06:40;;;;;;;16.90;6.00;;;;;;;15.09;55.61;100646.92;105736;1306;22042;-64
2022/11/05 06:09:06;;;;;;;11.50;5.20;;;;;;;15.20;55.55;100652.64;105711;1306;21961;-65
2022/11/05 06:11:32;;;;;;;10.20;5.70;;;;;;;15.30;55.70;100651.85;105650;1306;22493;-64
2022/11/05 06:13:58;;;;;;;11.60;4.80;;;;;;;15.40;55.70;100655.80;105775;1306;21979;-65
2022/11/05 06:16:27;;;;;;;8.40;4.60;;;;;;;15.52;55.83;100665.55;105798;1306;21966;-63
2022/11/05 06:18:53;;;;;;;9.20;4.80;;;;;;;15.63;55.91;100670.73;105748;1306;22420;-64
2022/11/05 06:21:20;;;;;;;10.70;4.70;;;;;;;15.71;55.91;100675.11;105916;1306;21958;-65
2022/11/05 06:23:47;;;;;;;9.40;4.50;;;;;;;15.91;55.66;100676.12;105712;1306;22428;-65
2022/11/05 06:26:14;;;;;;;9.70;4.90;;;;;;;16.07;55.58;100678.49;105782;1306;21959;-64
2022/11/05 06:28:40;;;;;;;8.00;3.70;;;;;;;16.17;55.47;100682.09;105766;1306;21977;-64
2022/11/05 06:31:10;;;;;;;6.70;3.30;;;;;;;16.26;55.47;100683.59;105735;1305;21963;-65
2022/11/05 06:33:36;;;;;;;11.50;3.40;;;;;;;16.37;55.49;100682.52;105885;1304;293529;-64
2022/11/05 06:36:05;;;;;;;7.90;3.30;;;;;;;16.46;55.43;100679.43;105676;1305;21964;-64
2022/11/05 06:38:32;;;;;;;7.40;3.40;;;;;;;16.55;55.48;100680.91;107862;1306;21798;-65
2022/11/05 06:40:58;;;;;;;8.50;2.90;;;;;;;16.64;55.49;100673.52;107836;1305;22473;-66
2022/11/05 06:43:25;;;;;;;6.30;2.80;;;;;;;16.73;55.50;100674.82;107856;1306;21866;-66
2022/11/05 06:45:50;;;;;;;5.30;3.40;;;;;;;16.81;55.44;100674.56;106466;1305;22224;-65
2022/11/05 06:48:16;;;;;;;6.90;3.50;;;;;;;16.86;55.38;100679.70;105693;1306;21975;-65
2022/11/05 06:50:43;;;;;;;6.80;3.70;;;;;;;16.91;55.43;100685.55;105757;1306;21982;-65
2022/11/05 06:53:09;;;;;;;6.00;3.30;;;;;;;16.96;55.50;100680.48;105819;1306;21953;-64
2022/11/05 06:55:35;;;;;;;11.80;4.20;;;;;;;17.00;55.39;100681.57;105854;1306;21939;-65
2022/11/05 06:58:01;;;;;;;7.60;3.70;;;;;;;17.04;55.34;100688.52;105764;1306;21962;-65
2022/11/05 07:00:27;;;;;;;7.50;4.40;;;;;;;17.07;55.39;100690.55;105750;1305;22004;-64
2022/11/05 07:02:54;;;;;;;8.80;4.30;;;;;;;17.11;55.37;100692.92;105768;1306;21975;-64
2022/11/05 07:05:20;;;;;;;9.70;4.30;;;;;;;17.14;55.32;100689.96;105764;1306;21972;-64
2022/11/05 07:07:48;;;;;;;8.50;3.90;;;;;;;17.20;55.29;100693.48;105752;1305;21964;-64
2022/11/05 07:10:15;;;;;;;10.80;5.80;;;;;;;17.26;55.28;100699.11;105753;1306;21970;-65
2022/11/05 07:12:41;;;;;;;11.70;5.50;;;;;;;17.32;55.23;100693.08;105776;1306;23666;-63
2022/11/05 07:15:09;;;;;;;10.10;5.50;;;;;;;17.38;55.15;100694.98;105900;1306;21966;-65
2022/11/05 07:17:37;;;;;;;9.80;5.30;;;;;;;17.43;55.15;100698.52;105884;1306;21951;-65
2022/11/05 07:20:06;;;;;;;11.50;4.80;;;;;;;17.50;54.97;100704.65;105843;1306;21960;-64
2022/11/05 07:22:35;;;;;;;10.70;5.50;;;;;;;17.61;54.94;100706.94;105759;1305;21960;-64
2022/11/05 07:25:02;;;;;;;10.90;5.80;;;;;;;17.73;54.95;100711.64;105845;1305;21971;-64
2022/11/05 07:27:28;;;;;;;9.50;4.70;;;;;;;17.81;54.74;100713.48;106342;1296;21957;-64
2022/11/05 07:29:53;;;;;;;8.70;4.10;;;;;;;17.89;54.49;100717.81;106039;1307;22850;-64
2022/11/05 07:32:19;;;;;;;15.20;5.10;;;;;;;17.96;54.28;100720.36;105699;1306;21981;-64
2022/11/05 07:34:45;;;;;;;7.50;4.20;;;;;;;18.04;54.19;100721.34;105706;1305;21966;-64
2022/11/05 07:37:11;;;;;;;11.00;5.50;;;;;;;18.12;53.91;100719.82;105709;1306;21957;-64
2022/11/05 07:39:38;;;;;;;8.40;4.80;;;;;;;18.19;53.64;100721.15;105748;1306;21983;-65
2022/11/05 07:42:04;;;;;;;8.40;4.20;;;;;;;18.25;53.47;100719.30;106194;1301;21969;-65
2022/11/05 07:44:29;;;;;;;8.40;3.70;;;;;;;18.31;52.87;100720.87;105713;1306;23173;-64
2022/11/05 07:46:55;;;;;;;7.90;4.80;;;;;;;18.38;52.42;100723.25;105745;1305;21965;-64
2022/11/05 07:49:22;;;;;;;8.40;4.20;;;;;;;18.39;52.18;100723.03;105674;1306;22004;-65
2022/11/05 07:51:48;;;;;;;9.10;4.10;;;;;;;18.39;52.24;100721.26;105827;1306;21976;-63
2022/11/05 07:54:14;;;;;;;8.80;4.20;;;;;;;18.40;51.89;100718.36;105663;1306;21962;-65
2022/11/05 07:56:39;;;;;;;7.80;4.10;;;;;;;18.41;51.53;100717.07;105701;1306;23553;-62
2022/11/05 07:59:05;;;;;;;7.40;4.10;;;;;;;18.47;51.08;100718.48;105612;1306;21971;-63
2022/11/05 08:01:31;;;;;;;6.10;4.80;;;;;;;18.50;50.98;100716.04;105629;1306;21969;-62
2022/11/05 08:03:57;;;;;;;7.50;4.40;;;;;;;18.51;51.01;100715.65;105623;1305;21957;-63
2022/11/05 08:06:22;;;;;;;8.70;4.30;;;;;;;18.51;51.14;100719.17;105630;1306;21957;-63
2022/11/05 08:08:48;;;;;;;10.30;4.40;;;;;;;18.58;51.20;100719.61;105854;1306;21962;-65
2022/11/05 08:11:14;;;;;;;12.10;4.80;;;;;;;18.63;50.97;100716.56;105691;1306;21963;-64
2022/11/05 08:13:41;;;;;;;10.20;4.10;;;;;;;18.68;51.04;100719.05;105706;1306;21966;-65
2022/11/05 08:16:08;;;;;;;9.20;4.20;;;;;;;18.66;50.27;100720.19;105755;1306;21961;-64
2022/11/05 08:18:35;;;;;;;11.10;5.10;;;;;;;18.68;49.45;100722.42;105748;1306;21959;-62
2022/11/05 08:21:02;;;;;;;6.30;4.10;;;;;;;18.70;49.31;100725.17;106913;1305;21991;-62
2022/11/05 08:23:28;;;;;;;7.20;4.70;;;;;;;18.75;49.69;100724.83;107848;1305;21809;-65
2022/11/05 08:25:55;;;;;;;8.50;3.30;;;;;;;18.77;48.93;100722.95;106673;1305;21957;-64
2022/11/05 08:28:21;;;;;;;14.20;4.30;;;;;;;18.74;48.33;100723.23;107764;1306;21917;-65
2022/11/05 08:30:51;;;;;;;7.10;4.00;;;;;;;18.78;48.76;100721.11;106768;1306;21973;-64
2022/11/05 08:33:17;;;;;;;7.90;4.00;;;;;;;18.83;48.45;100718.08;105719;1299;23090;-63
2022/11/05 08:35:43;;;;;;;6.50;3.80;;;;;;;18.82;47.99;100719.69;105619;1305;21956;-63
2022/11/05 08:38:12;;;;;;;6.70;3.90;;;;;;;18.83;47.59;100722.70;105736;1305;21966;-65
2022/11/05 08:40:38;;;;;;;9.80;4.00;;;;;;;18.83;47.16;100721.80;105814;1306;22130;-64
2022/11/05 08:43:05;;;;;;;13.00;5.30;;;;;;;18.86;47.22;100721.34;105803;1306;22007;-63
2022/11/05 08:45:31;;;;;;;5.70;3.90;;;;;;;18.87;47.28;100721.10;105779;1306;21965;-63
2022/11/05 08:48:08;;;;;;;7.70;4.10;;;;;;;18.89;47.23;100721.38;105687;1306;21977;-64
2022/11/05 08:50:34;;;;;;;7.90;3.90;;;;;;;18.91;46.96;100717.21;105759;1304;21973;-64
2022/11/05 08:53:00;;;;;;;13.20;4.20;;;;;;;18.92;46.65;100717.36;105697;1306;21959;-62
2022/11/05 08:55:26;;;;;;;7.10;4.10;;;;;;;18.95;47.04;100721.15;105631;1307;21961;-64
2022/11/05 08:57:56;;;;;;;10.90;4.10;;;;;;;18.99;46.78;100725.60;105636;1306;21974;-62
2022/11/05 09:00:23;;;;;;;9.40;3.80;;;;;;;19.01;46.67;100724.27;105759;1306;22464;-62
2022/11/05 09:02:49;;;;;;;6.20;3.30;;;;;;;18.99;46.05;100717.08;105823;1306;21964;-63
2022/11/05 09:05:15;;;;;;;17.20;5.30;;;;;;;19.05;46.21;100720.77;105789;1306;21971;-64
2022/11/05 09:07:41;;;;;;;8.00;3.10;;;;;;;19.11;46.20;100720.52;105753;1304;21996;-63
2022/11/05 09:10:07;;;;;;;8.00;3.40;;;;;;;19.17;45.89;100717.06;105786;1306;21963;-63
2022/11/05 09:12:33;;;;;;;5.90;3.50;;;;;;;19.16;45.35;100718.16;105778;1306;22006;-64
2022/11/05 09:15:00;;;;;;;5.20;2.90;;;;;;;19.18;45.07;100717.02;105829;1306;21960;-63
2022/11/05 09:17:26;;;;;;;7.30;3.40;;;;;;;19.24;45.50;100714.63;105793;1306;21947;-63
2022/11/05 09:19:51;;;;;;;5.30;3.30;;;;;;;19.27;45.39;100716.06;105718;1306;22055;-62
2022/11/05 09:22:17;;;;;;;4.90;2.90;;;;;;;19.30;45.37;100717.54;105724;1307;21965;-62
2022/11/05 09:24:43;;;;;;;6.00;3.40;;;;;;;19.35;45.50;100724.11;105758;1308;21968;-65
2022/11/05 09:27:10;;;;;;;17.80;11.60;;;;;;;19.41;45.90;100724.56;105741;1306;21962;-62
2022/11/05 09:29:36;;;;;;;16.50;9.70;;;;;;;19.51;46.41;100723.74;105969;1306;21960;-62
2022/11/05 09:32:02;;;;;;;15.90;8.30;;;;;;;19.58;46.36;100722.91;105972;1304;21961;-69
2022/11/05 09:34:28;;;;;;;7.00;4.10;;;;;;;19.64;46.29;100723.38;105918;1304;21980;-63
2022/11/05 09:36:55;;;;;;;7.40;4.50;;;;;;;19.68;46.48;100725.34;105941;1304;21957;-70
2022/11/05 09:39:21;;;;;;;14.20;5.30;;;;;;;19.69;47.10;100726.16;105985;1305;23358;-69
2022/11/05 09:41:47;;;;;;;9.10;4.60;;;;;;;19.73;47.67;100730.45;105904;1306;21972;-62
2022/11/05 09:44:19;;;;;;;6.00;3.40;;;;;;;19.85;48.14;100730.64;105802;1302;21972;-63
2022/11/05 09:46:59;;;;;;;8.30;4.00;;;;;;;19.96;48.34;100727.13;105836;1306;22052;-62
2022/11/05 09:49:38;;;;;;;8.70;4.80;;;;;;;20.08;48.60;100724.81;105759;1306;21970;-70
2022/11/05 09:52:05;;;;;;;7.90;4.70;;;;;;;20.16;48.71;100723.85;105781;1301;21981;-62
2022/11/05 09:54:32;;;;;;;7.90;4.90;;;;;;;20.20;48.70;100719.06;105842;1306;21963;-70
2022/11/05 09:56:58;;;;;;;7.70;4.70;;;;;;;20.20;48.76;100719.97;105776;1306;21996;-71
2022/11/05 09:59:47;;;;;;;9.30;5.40;;;;;;;20.20;48.90;100720.88;105690;1306;22011;-69
2022/11/05 10:02:29;;;;;;;9.30;5.10;;;;;;;20.19;48.97;100721.94;105833;1304;23634;-62
2022/11/05 10:04:58;;;;;;;10.80;4.70;;;;;;;20.20;49.06;100718.72;105749;1306;21963;-69
2022/11/05 10:07:29;;;;;;;9.20;4.60;;;;;;;20.20;49.24;100722.42;105928;1306;21983;-62
2022/11/05 10:10:01;;;;;;;12.30;5.10;;;;;;;20.17;49.25;100726.51;105757;1307;22007;-66
2022/11/05 10:12:31;;;;;;;13.20;4.80;;;;;;;20.16;49.32;100730.83;107797;1306;21848;-66
2022/11/05 10:15:16;;;;;;;11.10;5.90;;;;;;;20.17;49.37;100736.31;105888;1306;22642;-67
2022/11/05 10:17:45;;;;;;;11.20;6.10;;;;;;;20.13;49.43;100743.10;105910;1306;22308;-65
2022/11/05 10:20:27;;;;;;;8.30;5.00;;;;;;;20.15;49.49;100742.11;107337;1307;22019;-66
2022/11/05 10:22:54;;;;;;;10.00;5.20;;;;;;;20.17;49.50;100744.67;105767;1294;21949;-66
2022/11/05 10:25:20;;;;;;;8.00;4.90;;;;;;;20.23;49.52;100745.66;106000;1306;23705;-66
2022/11/05 10:27:51;;;;;;;7.40;4.90;;;;;;;20.26;49.53;100743.73;105752;1306;22014;-68
2022/11/05 10:30:19;;;;;;;7.80;5.00;;;;;;;20.28;49.54;100744.17;105768;1298;21977;-66
2022/11/05 10:32:45;;;;;;;10.90;4.80;;;;;;;20.31;49.45;100752.73;105782;1306;21978;-65
2022/11/05 10:35:17;;;;;;;8.40;5.30;;;;;;;20.32;49.47;100750.77;105853;1302;21969;-65
2022/11/05 10:37:46;;;;;;;7.90;5.40;;;;;;;20.32;49.56;100746.45;105761;1306;22057;-66
2022/11/05 10:40:36;;;;;;;9.40;5.70;;;;;;;20.33;49.56;100745.19;105659;1306;21967;-65
2022/11/05 10:43:05;;;;;;;10.20;5.80;;;;;;;20.38;49.48;100739.95;105771;1306;22089;-66
2022/11/05 10:45:35;;;;;;;12.30;5.80;;;;;;;20.38;49.52;100743.17;105823;1305;21965;-65
2022/11/05 10:48:17;;;;;;;11.20;5.10;;;;;;;20.39;49.65;100742.61;105749;1306;21984;-66
2022/11/05 10:51:03;;;;;;;9.00;4.90;;;;;;;20.43;49.65;100739.70;105693;1306;21938;-65
2022/11/05 10:53:31;;;;;;;11.20;5.20;;;;;;;20.48;49.64;100737.52;105701;1306;21967;-64
2022/11/05 10:56:00;;;;;;;10.10;5.50;;;;;;;20.54;49.60;100733.66;105819;1298;22006;-65
2022/11/05 10:58:30;;;;;;;8.70;5.50;;;;;;;20.55;49.47;100737.36;105799;1306;22014;-65
2022/11/05 11:00:57;;;;;;;14.00;5.90;;;;;;;20.54;49.48;100741.86;105818;1306;21962;-66
2022/11/05 11:03:48;;;;;;;11.30;6.00;;;;;;;20.57;49.47;100738.34;105755;1306;21967;-64
2022/11/05 11:06:17;;;;;;;785.30;597.00;;;;;;;20.57;49.42;100736.73;105801;1306;22002;-65
2022/11/05 11:08:44;;;;;;;465.40;384.40;;;;;;;20.56;49.75;100738.41;105950;1306;21960;-65
2022/11/05 11:11:12;;;;;;;104.20;77.20;;;;;;;20.58;49.99;100736.33;105829;1306;21969;-65
2022/11/05 11:14:10;;;;;;;37.00;28.30;;;;;;;20.66;50.01;100739.33;105823;1301;21959;-66
2022/11/05 11:16:41;;;;;;;17.20;10.80;;;;;;;20.78;49.93;100735.91;105845;1306;21953;-66
2022/11/05 11:19:27;;;;;;;15.60;7.60;;;;;;;20.90;49.96;100732.67;106076;1306;21981;-65
2022/11/05 11:22:12;;;;;;;18.50;9.80;;;;;;;21.00;49.90;100735.55;107825;1306;21809;-66
2022/11/05 11:24:40;;;;;;;25.20;9.10;;;;;;;21.13;49.82;100744.52;107831;1306;22302;-67
2022/11/05 11:27:12;;;;;;;15.00;7.00;;;;;;;21.22;49.68;100748.20;107865;1306;21821;-65
2022/11/05 11:29:39;;;;;;;13.40;6.20;;;;;;;21.26;49.51;100745.69;107821;1306;21805;-66
2022/11/05 11:32:14;;;;;;;11.10;5.80;;;;;;;21.32;49.50;100746.41;107750;1306;21821;-67
2022/11/05 11:34:42;;;;;;;7.90;5.60;;;;;;;21.34;49.13;100742.42;107237;1304;21977;-66
2022/11/05 11:37:21;;;;;;;6.80;5.10;;;;;;;21.23;49.02;100741.50;105651;1306;21963;-66
2022/11/05 11:39:49;;;;;;;9.50;4.50;;;;;;;21.09;49.00;100745.11;105730;1306;22019;-65
2022/11/05 11:42:22;;;;;;;9.60;5.50;;;;;;;20.99;49.11;100747.40;105795;1301;21964;-65
2022/11/05 11:44:47;;;;;;;537.70;481.80;;;;;;;20.90;49.13;100749.96;105817;1306;21978;-65
2022/11/05 11:47:15;;;;;;;69.20;58.10;;;;;;;20.89;49.63;100747.72;105731;1306;22190;-66
2022/11/05 11:49:41;;;;;;;26.70;21.50;;;;;;;20.94;49.59;100751.55;105691;1306;23611;-65
2022/11/05 11:52:13;;;;;;;20.10;12.10;;;;;;;21.01;49.53;100753.16;105761;1304;21962;-63
2022/11/05 11:54:39;;;;;;;17.10;13.00;;;;;;;21.05;49.41;100753.84;105757;1306;21979;-65
2022/11/05 11:57:19;;;;;;;416.40;373.60;;;;;;;21.05;49.35;100752.27;105625;1306;23691;-65
2022/11/05 11:59:45;;;;;;;46.30;41.50;;;;;;;21.05;49.40;100756.17;105776;1298;22009;-64
2022/11/05 12:02:24;;;;;;;19.00;14.00;;;;;;;21.08;49.32;100757.27;105768;1306;21961;-64
2022/11/05 12:05:06;;;;;;;11.90;7.90;;;;;;;21.09;49.11;100759.54;106145;1305;23109;-63